Mito, Japan

5:08 PM JST on 三月 23, 2017 (GMT +0900)
Naucalpan | | Change Station

高度 108 ft 36.45 °N, 140.50 °E | Updated 19 minutes ago

だいたい曇
だいたい曇
54.0 °F
体感気温 54.0 °F
1.9
風 変数 風 から 北北東
Gusts 6.2 Mph

今日
高い -- | 低 -- °F
--% 降水確率
昨日
高い -- | 低 -- °F
Precip. -- インチ
気圧 29.92 インチ
視程 6.2 マイル
わずか 3000 ft
やや曇 8000 ft
だいたい曇 21000 ft
露点温度 33 °F
湿度 45%
降水 0.00 インチ
積雪深 利用不可。
5:37 AM 5:52 PM
二十六夜, 25% visible
METAR RJAH 230800Z 06010KT 9999 FEW030 SCT080 BKN210 10/M02 Q1013
気圧 29.92 インチ
視程 6.2 マイル
わずか 3000 ft
やや曇 8000 ft
だいたい曇 21000 ft
露点温度 33 °F
湿度 45%
降水 0.00 インチ
積雪深 利用不可。
5:37 AM 5:52 PM
二十六夜, 25% visible
METAR RJAH 230800Z 06010KT 9999 FEW030 SCT080 BKN210 10/M02 Q1013

Get Severe Weather Alerts

Thanks for signing up!

Be on the lookout for a verification email in your inbox.

You'll start receiving the daily forecast at 8 AM.

×

10-Day Weather Forecast

No radar image for this location.
×

Almanac

天文

Mar. 23, 2017 入り
実時間
常用薄明
航海薄明
天文薄明
可視光の長さ
可照時間
Tomorrow will be .
, % of the Moon is Illuminated

今日の極値

Country Highs Country Lows

Community

WunderPhotos

Upload Photos

1,962,540 写真がアップロードされました!

WunderBlog® & News

Nearby

空気品質

  空気品質 大気質指数 汚染物質
Not available.

積雪深

Station Depth 高度

地震活動

Distance Mag. Time & Date
Minimum magnitude displayed is 2.5.

地震活動

Distance Mag. Time & Date
Minimum magnitude displayed is 2.5.

沿岸の水温

地名 気温

Stations

最寄りの気象観測所

観測所位置 温度 体感気温(寒さ) 露点温度 湿度 Precip. 高度 更新日時 タイプする